Airfield :







YOU CAN JOIN US ON...

 
LOGIN :

Register | Disclaimer

   EN    FR    IT 

 









Legend :    VFR   Marginal VFR   IFR   Intensive IFR   Very Intensive IFR
Visi :
Ceiling :
>= 8 km
>= 3000ft
5 to 8 km
1000 to 3000 ft
1500m to 5 km
500 to 1000 ft
800 to 1500m
200 to 500 ft
< 800m
< 200 ft
Symbols :   Thunderstorms  Fog  Heavy snow  Heavy precipitations  Wind > 20 kt






- Airport Elevation : 241 ft
- IATA code : CEF


KCEF - Westover ARB/Metropolitan

CURRENT METAR :
  • 250155Z 00000KT 10SM FEW250 09/07 A2984 RMK AO2A SLP111 T00900070

EXPIRED METARs :
  • 250055Z 16004KT 10SM SCT200 BKN250 11/07 A2984 RMK AO2A SLP111 T01130068
  • 242355Z 27003KT 10SM FEW200 FEW250 14/07 A2984 RMK AO2A SLP111 T01410067 10198 20133 52002

TAF TAF KCEF
Valid from the 24 at 18:00 until the 26 at 00:00 UTC


241810Z 2418/2524 32010G16KT 9999 FEW250 QNH2984INS
BECMG 2420/2421 28009KT 9999 SCT230 QNH2985INS
BECMG 2423/2424 26005KT 9999 SCT200 QNH2986INS
BECMG 2505/2506 VRB03KT 9999 SCT140 BKN200 QNH2982INS
BECMG 2508/2509 VRB03KT 9999 FEW060 BKN100 BKN200 QNH2979INS
BECMG 2512/2513 18006KT 9999 FEW035 BKN060 BKN120 OVC200 QNH2969INS
BECMG 2516/2517 18009KT 9999 BKN025 OVC055 QNH2961INS
BECMG 2520/2521 17005KT 9000 -RA BR BKN015 OVC040 QNH2957INS TX21/2518Z TN07/2511Z
KZBW FIR / North America



MET'MAP, your aeronautical weather chart ! - Copyright ORBIFLY December 2007 - Disclaimer

ORBIFLY MET'MAP TEAM :

Programming & Development : Alexandra Zaïnal
Original concept : Baudouin d'Aumeries
Technical & hardware support : Manuel Goepfert
Assistance : Marc-Olivier Méhu




SOURCES & CREDITS :

   NOAA